PWSweather.com
Personal Weather Stations
Station Observations
01979
Ravne Pri CerknemSI 5282

Ravne Pri CerknemSI 5282

Lat: 46.1213916, Lon: 13.952774299999987

Elevation: 2244.094488

Station Type: Techo Line WS2307

www.vremenska.postaja.andre.si/

High Low Average
Temperature 62.8°F17.1°C 37.6°F3.1°C 49.5°F9.7°C
Dew Point 38.4°F3.6°C 27.1°F-2.7°C 31.2°F-0.4°C
Winds 7.4 mph 11.9 kmh Calm Calm 2.0 mph E3.2 kmh E
Wind Gusts 11.9 mph19.2 kmh -- 4.0 mph6.4 kmh
Humidity 70% 33% 51%
Pressure 30.49 in1032.5 mb 30.35 in1027.8 mb -
Precipitation 0.00 in0.0 mm - -
Hour Temp Dew Point Humidity Winds Wind Gusts Pressure Precip Precip Rate Daily Precip Total
12:00 AM 38.8°F3.8°C 29.2°F-1.6°C 68% 0.3 mph N0.5 kmh N 6.5 mph10.5 kmh 30.48 in1032.2 mb 0.00 in0.0 mm 0.00 in0.0 mm 0.00 in0.0 mm
12:10 AM 38.5°F3.6°C 29.2°F-1.6°C 69% 2.5 mph N4.0 kmh N 6.5 mph10.5 kmh 30.48 in1032.2 mb 0.00 in0.0 mm 0.00 in0.0 mm 0.00 in0.0 mm
12:20 AM 38.1°F3.4°C 28.8°F-1.8°C 69% 0.6 mph NNW1.0 kmh NNW 2.9 mph4.7 kmh 30.48 in1032.2 mb 0.00 in0.0 mm 0.00 in0.0 mm 0.00 in0.0 mm
12:30 AM 37.6°F3.1°C 28.7°F-1.8°C 70% 1.5 mph N2.4 kmh N 3.8 mph6.1 kmh 30.48 in1032.2 mb 0.00 in0.0 mm 0.00 in0.0 mm 0.00 in0.0 mm
12:40 AM 37.6°F3.1°C 28.7°F-1.8°C 70% 1.4 mph N2.3 kmh N 3.1 mph5.0 kmh 30.48 in1032.2 mb 0.00 in0.0 mm 0.00 in0.0 mm 0.00 in0.0 mm
12:50 AM 37.8°F3.2°C 28.9°F-1.7°C 70% 0.1 mph N0.2 kmh N 1.8 mph2.9 kmh 30.48 in1032.2 mb 0.00 in0.0 mm 0.00 in0.0 mm 0.00 in0.0 mm
01:00 AM 38.5°F3.6°C 29.2°F-1.6°C 69% 2.0 mph N3.2 kmh N 5.4 mph8.7 kmh 30.48 in1032.2 mb 0.00 in0.0 mm 0.00 in0.0 mm 0.00 in0.0 mm
01:10 AM 39.0°F3.9°C 29.7°F-1.3°C 69% 0.9 mph NNW1.4 kmh NNW 5.1 mph8.2 kmh 30.48 in1032.2 mb 0.00 in0.0 mm 0.00 in0.0 mm 0.00 in0.0 mm
01:20 AM 39.0°F3.9°C 29.3°F-1.5°C 68% Calm Calm -- 30.48 in1032.2 mb 0.00 in0.0 mm 0.00 in0.0 mm 0.00 in0.0 mm
01:30 AM 39.0°F3.9°C 29.3°F-1.5°C 68% 1.4 mph SSW2.3 kmh SSW 4.3 mph6.9 kmh 30.48 in1032.2 mb 0.00 in0.0 mm 0.00 in0.0 mm 0.00 in0.0 mm
01:40 AM 39.4°F4.1°C 29.3°F-1.5°C 67% Calm Calm -- 30.48 in1032.2 mb 0.00 in0.0 mm 0.00 in0.0 mm 0.00 in0.0 mm
01:50 AM 38.3°F3.5°C 28.7°F-1.8°C 68% 2.5 mph SE4.0 kmh SE 3.4 mph5.5 kmh 30.49 in1032.5 mb 0.00 in0.0 mm 0.00 in0.0 mm 0.00 in0.0 mm
02:00 AM 38.8°F3.8°C 29.2°F-1.6°C 68% 0.3 mph E0.5 kmh E 3.4 mph5.5 kmh 30.48 in1032.2 mb 0.00 in0.0 mm 0.00 in0.0 mm 0.00 in0.0 mm
02:10 AM 38.3°F3.5°C 29.0°F-1.7°C 69% Calm Calm -- 30.48 in1032.2 mb 0.00 in0.0 mm 0.00 in0.0 mm 0.00 in0.0 mm
02:20 AM 38.1°F3.4°C 28.8°F-1.8°C 69% Calm Calm -- 30.48 in1032.2 mb 0.00 in0.0 mm 0.00 in0.0 mm 0.00 in0.0 mm
02:30 AM 39.0°F3.9°C 29.3°F-1.5°C 68% Calm Calm -- 30.48 in1032.2 mb 0.00 in0.0 mm 0.00 in0.0 mm 0.00 in0.0 mm
02:40 AM 39.4°F4.1°C 29.7°F-1.3°C 68% Calm Calm -- 30.47 in1031.8 mb 0.00 in0.0 mm 0.00 in0.0 mm 0.00 in0.0 mm
02:50 AM 39.6°F4.2°C 29.5°F-1.4°C 67% Calm Calm -- 30.47 in1031.8 mb 0.00 in0.0 mm 0.00 in0.0 mm 0.00 in0.0 mm
03:00 AM 39.4°F4.1°C 29.3°F-1.5°C 67% Calm Calm -- 30.46 in1031.5 mb 0.00 in0.0 mm 0.00 in0.0 mm 0.00 in0.0 mm
03:03 AM 39.4°F4.1°C 29.7°F-1.3°C 68% Calm Calm -- 30.47 in1031.8 mb 0.00 in0.0 mm 0.00 in0.0 mm 0.00 in0.0 mm
03:10 AM 40.3°F4.6°C 29.8°F-1.2°C 66% 1.3 mph SE2.1 kmh SE 2.7 mph4.3 kmh 30.46 in1031.5 mb 0.00 in0.0 mm 0.00 in0.0 mm 0.00 in0.0 mm
03:20 AM 40.3°F4.6°C 29.4°F-1.4°C 65% 0.1 mph SE0.2 kmh SE 2.7 mph4.3 kmh 30.45 in1031.2 mb 0.00 in0.0 mm 0.00 in0.0 mm 0.00 in0.0 mm
03:30 AM 39.7°F4.3°C 28.9°F-1.7°C 65% Calm Calm -- 30.45 in1031.2 mb 0.00 in0.0 mm 0.00 in0.0 mm 0.00 in0.0 mm
03:40 AM 39.7°F4.3°C 29.3°F-1.5°C 66% 0.9 mph SE1.4 kmh SE 4.3 mph6.9 kmh 30.46 in1031.5 mb 0.00 in0.0 mm 0.00 in0.0 mm 0.00 in0.0 mm
03:50 AM 40.6°F4.8°C 29.8°F-1.2°C 65% 4.4 mph ESE7.1 kmh ESE 7.4 mph11.9 kmh 30.45 in1031.2 mb 0.00 in0.0 mm 0.00 in0.0 mm 0.00 in0.0 mm
04:00 AM 40.8°F4.9°C 29.6°F-1.3°C 64% 1.5 mph ESE2.4 kmh ESE 7.4 mph11.9 kmh 30.45 in1031.2 mb 0.00 in0.0 mm 0.00 in0.0 mm 0.00 in0.0 mm
04:10 AM 40.8°F4.9°C 29.6°F-1.3°C 64% 2.3 mph ESE3.7 kmh ESE 7.4 mph11.9 kmh 30.45 in1031.2 mb 0.00 in0.0 mm 0.00 in0.0 mm 0.00 in0.0 mm
04:20 AM 41.2°F5.1°C 29.9°F-1.2°C 64% 5.1 mph ESE8.2 kmh ESE 7.4 mph11.9 kmh 30.45 in1031.2 mb 0.00 in0.0 mm 0.00 in0.0 mm 0.00 in0.0 mm
04:30 AM 41.4°F5.2°C 30.1°F-1.1°C 64% 0.8 mph ESE1.3 kmh ESE 5.4 mph8.7 kmh 30.45 in1031.2 mb 0.00 in0.0 mm 0.00 in0.0 mm 0.00 in0.0 mm
04:40 AM 41.4°F5.2°C 30.1°F-1.1°C 64% 0.4 mph ESE0.6 kmh ESE 1.8 mph2.9 kmh 30.45 in1031.2 mb 0.00 in0.0 mm 0.00 in0.0 mm 0.00 in0.0 mm
04:50 AM 41.5°F5.3°C 29.9°F-1.2°C 63% 0.9 mph SE1.4 kmh SE 4.5 mph7.2 kmh 30.45 in1031.2 mb 0.00 in0.0 mm 0.00 in0.0 mm 0.00 in0.0 mm
05:00 AM 41.5°F5.3°C 29.9°F-1.2°C 63% 1.2 mph ESE1.9 kmh ESE 3.6 mph5.8 kmh 30.45 in1031.2 mb 0.00 in0.0 mm 0.00 in0.0 mm 0.00 in0.0 mm
05:10 AM 41.2°F5.1°C 29.9°F-1.2°C 64% Calm Calm -- 30.45 in1031.2 mb 0.00 in0.0 mm 0.00 in0.0 mm 0.00 in0.0 mm
05:20 AM 41.2°F5.1°C 29.9°F-1.2°C 64% Calm Calm -- 30.45 in1031.2 mb 0.00 in0.0 mm 0.00 in0.0 mm 0.00 in0.0 mm
05:30 AM 41.9°F5.5°C 30.2°F-1.0°C 63% 0.9 mph E1.4 kmh E 1.6 mph2.6 kmh 30.45 in1031.2 mb 0.00 in0.0 mm 0.00 in0.0 mm 0.00 in0.0 mm
05:40 AM 41.2°F5.1°C 29.9°F-1.2°C 64% Calm Calm -- 30.44 in1030.8 mb 0.00 in0.0 mm 0.00 in0.0 mm 0.00 in0.0 mm
05:50 AM 40.3°F4.6°C 29.1°F-1.6°C 64% 1.2 mph NNE1.9 kmh NNE 3.4 mph5.5 kmh 30.44 in1030.8 mb 0.00 in0.0 mm 0.00 in0.0 mm 0.00 in0.0 mm
06:00 AM 41.2°F5.1°C 29.9°F-1.2°C 64% 0.2 mph NNE0.3 kmh NNE 3.4 mph5.5 kmh 30.44 in1030.8 mb 0.00 in0.0 mm 0.00 in0.0 mm 0.00 in0.0 mm
06:10 AM 41.2°F5.1°C 29.9°F-1.2°C 64% 1.4 mph E2.3 kmh E 4.0 mph6.4 kmh 30.43 in1030.5 mb 0.00 in0.0 mm 0.00 in0.0 mm 0.00 in0.0 mm
06:20 AM 41.2°F5.1°C 29.9°F-1.2°C 64% Calm Calm -- 30.43 in1030.5 mb 0.00 in0.0 mm 0.00 in0.0 mm 0.00 in0.0 mm
06:30 AM 40.6°F4.8°C 29.8°F-1.2°C 65% Calm Calm -- 30.43 in1030.5 mb 0.00 in0.0 mm 0.00 in0.0 mm 0.00 in0.0 mm
06:40 AM 39.9°F4.4°C 29.1°F-1.6°C 65% Calm Calm 2.9 mph4.7 kmh 30.42 in1030.1 mb 0.00 in0.0 mm 0.00 in0.0 mm 0.00 in0.0 mm
06:50 AM 39.9°F4.4°C 29.1°F-1.6°C 65% 0.6 mph NNE1.0 kmh NNE 2.9 mph4.7 kmh 30.43 in1030.5 mb 0.00 in0.0 mm 0.00 in0.0 mm 0.00 in0.0 mm
07:00 AM 41.0°F5.0°C 29.7°F-1.3°C 64% Calm Calm -- 30.43 in1030.5 mb 0.00 in0.0 mm 0.00 in0.0 mm 0.00 in0.0 mm
07:10 AM 41.2°F5.1°C 29.5°F-1.4°C 63% Calm Calm -- 30.43 in1030.5 mb 0.00 in0.0 mm 0.00 in0.0 mm 0.00 in0.0 mm
07:20 AM 41.4°F5.2°C 29.7°F-1.3°C 63% Calm Calm -- 30.43 in1030.5 mb 0.00 in0.0 mm 0.00 in0.0 mm 0.00 in0.0 mm
07:30 AM 41.5°F5.3°C 29.5°F-1.4°C 62% Calm Calm -- 30.43 in1030.5 mb 0.00 in0.0 mm 0.00 in0.0 mm 0.00 in0.0 mm
07:40 AM 41.5°F5.3°C 29.5°F-1.4°C 62% Calm Calm -- 30.43 in1030.5 mb 0.00 in0.0 mm 0.00 in0.0 mm 0.00 in0.0 mm
07:50 AM 41.0°F5.0°C 29.4°F-1.4°C 63% 0.1 mph N0.2 kmh N 0.9 mph1.4 kmh 30.44 in1030.8 mb 0.00 in0.0 mm 0.00 in0.0 mm 0.00 in0.0 mm
08:00 AM 41.5°F5.3°C 29.9°F-1.2°C 63% Calm Calm 0.9 mph1.4 kmh 30.44 in1030.8 mb 0.00 in0.0 mm 0.00 in0.0 mm 0.00 in0.0 mm
08:10 AM 42.1°F5.6°C 30.0°F-1.1°C 62% Calm Calm 0.7 mph1.1 kmh 30.44 in1030.8 mb 0.00 in0.0 mm 0.00 in0.0 mm 0.00 in0.0 mm
08:20 AM 42.3°F5.7°C 30.2°F-1.0°C 62% 0.1 mph ENE0.2 kmh ENE 0.7 mph1.1 kmh 30.43 in1030.5 mb 0.00 in0.0 mm 0.00 in0.0 mm 0.00 in0.0 mm
08:30 AM 42.4°F5.8°C 30.3°F-0.9°C 62% Calm Calm -- 30.43 in1030.5 mb 0.00 in0.0 mm 0.00 in0.0 mm 0.00 in0.0 mm
08:40 AM 42.4°F5.8°C 30.3°F-0.9°C 62% Calm Calm -- 30.43 in1030.5 mb 0.00 in0.0 mm 0.00 in0.0 mm 0.00 in0.0 mm
08:50 AM 43.0°F6.1°C 30.4°F-0.9°C 61% 1.0 mph E1.6 kmh E 6.3 mph10.1 kmh 30.44 in1030.8 mb 0.00 in0.0 mm 0.00 in0.0 mm 0.00 in0.0 mm
09:00 AM 42.6°F5.9°C 30.5°F-0.8°C 62% 1.5 mph E2.4 kmh E 6.3 mph10.1 kmh 30.44 in1030.8 mb 0.00 in0.0 mm 0.00 in0.0 mm 0.00 in0.0 mm
09:10 AM 42.6°F5.9°C 30.5°F-0.8°C 62% Calm Calm -- 30.44 in1030.8 mb 0.00 in0.0 mm 0.00 in0.0 mm 0.00 in0.0 mm
09:20 AM 43.2°F6.2°C 31.0°F-0.6°C 62% 1.1 mph N1.8 kmh N 5.4 mph8.7 kmh 30.44 in1030.8 mb 0.00 in0.0 mm 0.00 in0.0 mm 0.00 in0.0 mm
09:30 AM 44.2°F6.8°C 32.0°F0.0°C 62% 0.2 mph N0.3 kmh N 1.1 mph1.8 kmh 30.45 in1031.2 mb 0.00 in0.0 mm 0.00 in0.0 mm 0.00 in0.0 mm
09:40 AM 44.4°F6.9°C 32.2°F0.1°C 62% Calm Calm -- 30.43 in1030.5 mb 0.00 in0.0 mm 0.00 in0.0 mm 0.00 in0.0 mm
09:50 AM 44.4°F6.9°C 32.2°F0.1°C 62% Calm Calm -- 30.43 in1030.5 mb 0.00 in0.0 mm 0.00 in0.0 mm 0.00 in0.0 mm
10:00 AM 44.4°F6.9°C 31.8°F-0.1°C 61% 0.4 mph ENE0.6 kmh ENE 2.0 mph3.2 kmh 30.43 in1030.5 mb 0.00 in0.0 mm 0.00 in0.0 mm 0.00 in0.0 mm
10:10 AM 44.6°F7.0°C 32.0°F0.0°C 61% Calm Calm -- 30.43 in1030.5 mb 0.00 in0.0 mm 0.00 in0.0 mm 0.00 in0.0 mm
10:20 AM 44.2°F6.8°C 31.6°F-0.2°C 61% 1.3 mph N2.1 kmh N 6.9 mph11.1 kmh 30.43 in1030.5 mb 0.00 in0.0 mm 0.00 in0.0 mm 0.00 in0.0 mm
10:30 AM 44.8°F7.1°C 32.5°F0.3°C 62% 0.3 mph N0.5 kmh N 6.9 mph11.1 kmh 30.42 in1030.1 mb 0.00 in0.0 mm 0.00 in0.0 mm 0.00 in0.0 mm
10:40 AM 46.2°F7.9°C 33.1°F0.6°C 60% Calm Calm -- 30.43 in1030.5 mb 0.00 in0.0 mm 0.00 in0.0 mm 0.00 in0.0 mm
10:50 AM 46.2°F7.9°C 32.2°F0.1°C 58% Calm Calm -- 30.43 in1030.5 mb 0.00 in0.0 mm 0.00 in0.0 mm 0.00 in0.0 mm
11:00 AM 47.1°F8.4°C 33.5°F0.8°C 59% 0.8 mph NNW1.3 kmh NNW 3.6 mph5.8 kmh 30.42 in1030.1 mb 0.00 in0.0 mm 0.00 in0.0 mm 0.00 in0.0 mm
11:10 AM 47.8°F8.8°C 34.2°F1.2°C 59% Calm Calm -- 30.43 in1030.5 mb 0.00 in0.0 mm 0.00 in0.0 mm 0.00 in0.0 mm
11:20 AM 47.5°F8.6°C 34.3°F1.3°C 60% 1.2 mph N1.9 kmh N 6.0 mph9.7 kmh 30.43 in1030.5 mb 0.00 in0.0 mm 0.00 in0.0 mm 0.00 in0.0 mm
11:30 AM 47.1°F8.4°C 33.1°F0.6°C 58% 0.4 mph S0.6 kmh S 3.8 mph6.1 kmh 30.43 in1030.5 mb 0.00 in0.0 mm 0.00 in0.0 mm 0.00 in0.0 mm
11:40 AM 48.0°F8.9°C 33.5°F0.8°C 57% 1.3 mph NW2.1 kmh NW 4.3 mph6.9 kmh 30.43 in1030.5 mb 0.00 in0.0 mm 0.00 in0.0 mm 0.00 in0.0 mm
11:50 AM 49.1°F9.5°C 33.2°F0.7°C 54% 1.1 mph NNW1.8 kmh NNW 6.0 mph9.7 kmh 30.43 in1030.5 mb 0.00 in0.0 mm 0.00 in0.0 mm 0.00 in0.0 mm
12:00 PM 50.0°F10.0°C 33.5°F0.8°C 53% 0.4 mph NNW0.6 kmh NNW 6.0 mph9.7 kmh 30.42 in1030.1 mb 0.00 in0.0 mm 0.00 in0.0 mm 0.00 in0.0 mm
12:10 PM 51.3°F10.7°C 35.2°F1.8°C 54% Calm Calm -- 30.42 in1030.1 mb 0.00 in0.0 mm 0.00 in0.0 mm 0.00 in0.0 mm
12:20 PM 52.0°F11.1°C 34.9°F1.6°C 52% Calm Calm -- 30.41 in1029.8 mb 0.00 in0.0 mm 0.00 in0.0 mm 0.00 in0.0 mm
12:30 PM 54.7°F12.6°C 36.4°F2.4°C 50% 0.4 mph W0.6 kmh W 2.0 mph3.2 kmh 30.41 in1029.8 mb 0.00 in0.0 mm 0.00 in0.0 mm 0.00 in0.0 mm
12:40 PM 54.3°F12.4°C 36.6°F2.6°C 51% 0.4 mph S0.6 kmh S 2.0 mph3.2 kmh 30.40 in1029.5 mb 0.00 in0.0 mm 0.00 in0.0 mm 0.00 in0.0 mm
12:50 PM 55.8°F13.2°C 37.9°F3.3°C 51% 1.5 mph WSW2.4 kmh WSW 4.0 mph6.4 kmh 30.39 in1029.1 mb 0.00 in0.0 mm 0.00 in0.0 mm 0.00 in0.0 mm
01:00 PM 55.2°F12.9°C 36.9°F2.7°C 50% 4.1 mph NW6.6 kmh NW 8.5 mph13.7 kmh 30.40 in1029.5 mb 0.00 in0.0 mm 0.00 in0.0 mm 0.00 in0.0 mm
01:10 PM 57.4°F14.1°C 37.8°F3.2°C 48% 1.1 mph NW1.8 kmh NW 8.5 mph13.7 kmh 30.40 in1029.5 mb 0.00 in0.0 mm 0.00 in0.0 mm 0.00 in0.0 mm
01:20 PM 55.9°F13.3°C 36.5°F2.5°C 48% 2.8 mph NNW4.5 kmh NNW 5.6 mph9.0 kmh 30.38 in1028.8 mb 0.00 in0.0 mm 0.00 in0.0 mm 0.00 in0.0 mm
01:30 PM 56.5°F13.6°C 35.4°F1.9°C 45% 2.0 mph NW3.2 kmh NW 4.9 mph7.9 kmh 30.39 in1029.1 mb 0.00 in0.0 mm 0.00 in0.0 mm 0.00 in0.0 mm
01:40 PM 57.9°F14.4°C 36.7°F2.6°C 45% 0.1 mph NNW0.2 kmh NNW 1.1 mph1.8 kmh 30.38 in1028.8 mb 0.00 in0.0 mm 0.00 in0.0 mm 0.00 in0.0 mm
01:50 PM 59.2°F15.1°C 36.7°F2.6°C 43% 3.0 mph NW4.8 kmh NW 5.1 mph8.2 kmh 30.37 in1028.4 mb 0.00 in0.0 mm 0.00 in0.0 mm 0.00 in0.0 mm
02:00 PM 61.5°F16.4°C 37.6°F3.1°C 41% 0.2 mph NNW0.3 kmh NNW 4.9 mph7.9 kmh 30.37 in1028.4 mb 0.00 in0.0 mm 0.00 in0.0 mm 0.00 in0.0 mm
02:10 PM 61.9°F16.6°C 37.9°F3.3°C 41% 1.0 mph SSE1.6 kmh SSE 3.1 mph5.0 kmh 30.37 in1028.4 mb 0.00 in0.0 mm 0.00 in0.0 mm 0.00 in0.0 mm
02:20 PM 62.8°F17.1°C 38.1°F3.4°C 40% 0.3 mph W0.5 kmh W 1.8 mph2.9 kmh 30.37 in1028.4 mb 0.00 in0.0 mm 0.00 in0.0 mm 0.00 in0.0 mm
02:30 PM 61.7°F16.5°C 38.4°F3.6°C 42% 0.3 mph N0.5 kmh N 1.6 mph2.6 kmh 30.36 in1028.1 mb 0.00 in0.0 mm 0.00 in0.0 mm 0.00 in0.0 mm
02:40 PM 61.2°F16.2°C 36.6°F2.6°C 40% 2.1 mph NNW3.4 kmh NNW 6.3 mph10.1 kmh 30.36 in1028.1 mb 0.00 in0.0 mm 0.00 in0.0 mm 0.00 in0.0 mm
02:50 PM 60.4°F15.8°C 36.0°F2.2°C 40% 1.0 mph NNW1.6 kmh NNW 6.3 mph10.1 kmh 30.36 in1028.1 mb 0.00 in0.0 mm 0.00 in0.0 mm 0.00 in0.0 mm
03:00 PM 60.6°F15.9°C 36.1°F2.3°C 40% 1.4 mph NE2.3 kmh NE 4.0 mph6.4 kmh 30.36 in1028.1 mb 0.00 in0.0 mm 0.00 in0.0 mm 0.00 in0.0 mm
03:10 PM 61.9°F16.6°C 33.2°F0.7°C 34% 5.6 mph ESE9.0 kmh ESE 8.7 mph14.0 kmh 30.35 in1027.8 mb 0.00 in0.0 mm 0.00 in0.0 mm 0.00 in0.0 mm
03:20 PM 62.2°F16.8°C 34.9°F1.6°C 36% 4.0 mph E6.4 kmh E 11.0 mph17.7 kmh 30.36 in1028.1 mb 0.00 in0.0 mm 0.00 in0.0 mm 0.00 in0.0 mm
03:30 PM 61.9°F16.6°C 33.2°F0.7°C 34% 4.6 mph ENE7.4 kmh ENE 6.5 mph10.5 kmh 30.35 in1027.8 mb 0.00 in0.0 mm 0.00 in0.0 mm 0.00 in0.0 mm
03:40 PM 61.7°F16.5°C 33.0°F0.6°C 34% 6.5 mph NE10.5 kmh NE 9.8 mph15.8 kmh 30.35 in1027.8 mb 0.00 in0.0 mm 0.00 in0.0 mm 0.00 in0.0 mm
03:50 PM 61.0°F16.1°C 32.4°F0.2°C 34% 5.1 mph NE8.2 kmh NE 10.1 mph16.3 kmh 30.36 in1028.1 mb 0.00 in0.0 mm 0.00 in0.0 mm 0.00 in0.0 mm
04:00 PM 61.0°F16.1°C 32.4°F0.2°C 34% 3.2 mph E5.1 kmh E 6.0 mph9.7 kmh 30.35 in1027.8 mb 0.00 in0.0 mm 0.00 in0.0 mm 0.00 in0.0 mm
04:10 PM 61.9°F16.6°C 33.2°F0.7°C 34% 4.5 mph E7.2 kmh E 8.7 mph14.0 kmh 30.35 in1027.8 mb 0.00 in0.0 mm 0.00 in0.0 mm 0.00 in0.0 mm
04:20 PM 61.7°F16.5°C 33.0°F0.6°C 34% 4.1 mph E6.6 kmh E 6.3 mph10.1 kmh 30.35 in1027.8 mb 0.00 in0.0 mm 0.00 in0.0 mm 0.00 in0.0 mm
04:30 PM 61.5°F16.4°C 32.9°F0.5°C 34% 3.3 mph SE5.3 kmh SE 11.9 mph19.2 kmh 30.35 in1027.8 mb 0.00 in0.0 mm 0.00 in0.0 mm 0.00 in0.0 mm
04:40 PM 61.5°F16.4°C 32.1°F0.1°C 33% 3.8 mph ESE6.1 kmh ESE 6.7 mph10.8 kmh 30.35 in1027.8 mb 0.00 in0.0 mm 0.00 in0.0 mm 0.00 in0.0 mm
04:50 PM 60.6°F15.9°C 32.1°F0.1°C 34% 6.8 mph E10.9 kmh E 9.8 mph15.8 kmh 30.35 in1027.8 mb 0.00 in0.0 mm 0.00 in0.0 mm 0.00 in0.0 mm
05:00 PM 60.6°F15.9°C 32.1°F0.1°C 34% 7.2 mph E11.6 kmh E 10.7 mph17.2 kmh 30.35 in1027.8 mb 0.00 in0.0 mm 0.00 in0.0 mm 0.00 in0.0 mm
05:10 PM 60.4°F15.8°C 31.9°F-0.1°C 34% 6.7 mph NE10.8 kmh NE 10.7 mph17.2 kmh 30.35 in1027.8 mb 0.00 in0.0 mm 0.00 in0.0 mm 0.00 in0.0 mm
05:20 PM 59.7°F15.4°C 31.3°F-0.4°C 34% 4.8 mph NE7.7 kmh NE 6.5 mph10.5 kmh 30.36 in1028.1 mb 0.00 in0.0 mm 0.00 in0.0 mm 0.00 in0.0 mm
05:30 PM 59.5°F15.3°C 31.1°F-0.5°C 34% 3.3 mph ENE5.3 kmh ENE 4.9 mph7.9 kmh 30.36 in1028.1 mb 0.00 in0.0 mm 0.00 in0.0 mm 0.00 in0.0 mm
05:40 PM 58.8°F14.9°C 31.2°F-0.4°C 35% 3.8 mph E6.1 kmh E 6.7 mph10.8 kmh 30.36 in1028.1 mb 0.00 in0.0 mm 0.00 in0.0 mm 0.00 in0.0 mm
05:50 PM 58.8°F14.9°C 31.2°F-0.4°C 35% 7.1 mph E11.4 kmh E 9.8 mph15.8 kmh 30.36 in1028.1 mb 0.00 in0.0 mm 0.00 in0.0 mm 0.00 in0.0 mm
06:00 PM 58.6°F14.8°C 31.0°F-0.6°C 35% 7.4 mph E11.9 kmh E 9.8 mph15.8 kmh 30.36 in1028.1 mb 0.00 in0.0 mm 0.00 in0.0 mm 0.00 in0.0 mm
06:10 PM 58.6°F14.8°C 31.7°F-0.2°C 36% 5.7 mph ENE9.2 kmh ENE 10.7 mph17.2 kmh 30.37 in1028.4 mb 0.00 in0.0 mm 0.00 in0.0 mm 0.00 in0.0 mm
06:20 PM 58.6°F14.8°C 31.0°F-0.6°C 35% 5.2 mph ENE8.4 kmh ENE 10.7 mph17.2 kmh 30.37 in1028.4 mb 0.00 in0.0 mm 0.00 in0.0 mm 0.00 in0.0 mm
06:30 PM 58.6°F14.8°C 31.7°F-0.2°C 36% 5.8 mph ENE9.3 kmh ENE 8.1 mph13.0 kmh 30.37 in1028.4 mb 0.00 in0.0 mm 0.00 in0.0 mm 0.00 in0.0 mm
06:40 PM 58.6°F14.8°C 31.0°F-0.6°C 35% 5.1 mph E8.2 kmh E 10.3 mph16.6 kmh 30.37 in1028.4 mb 0.00 in0.0 mm 0.00 in0.0 mm 0.00 in0.0 mm
06:50 PM 58.3°F14.6°C 31.4°F-0.3°C 36% 6.6 mph E10.6 kmh E 10.3 mph16.6 kmh 30.37 in1028.4 mb 0.00 in0.0 mm 0.00 in0.0 mm 0.00 in0.0 mm
07:00 PM 57.9°F14.4°C 31.1°F-0.5°C 36% 4.2 mph NE6.8 kmh NE 9.2 mph14.8 kmh 30.38 in1028.8 mb 0.00 in0.0 mm 0.00 in0.0 mm 0.00 in0.0 mm
07:10 PM 57.9°F14.4°C 31.8°F-0.1°C 37% 3.7 mph NE6.0 kmh NE 8.1 mph13.0 kmh 30.38 in1028.8 mb 0.00 in0.0 mm 0.00 in0.0 mm 0.00 in0.0 mm
07:20 PM 58.1°F14.5°C 31.3°F-0.4°C 36% 5.6 mph E9.0 kmh E 8.1 mph13.0 kmh 30.38 in1028.8 mb 0.00 in0.0 mm 0.00 in0.0 mm 0.00 in0.0 mm
07:30 PM 57.9°F14.4°C 31.8°F-0.1°C 37% 1.7 mph E2.7 kmh E 6.7 mph10.8 kmh 30.38 in1028.8 mb 0.00 in0.0 mm 0.00 in0.0 mm 0.00 in0.0 mm
07:40 PM 57.4°F14.1°C 31.3°F-0.4°C 37% 1.8 mph N2.9 kmh N 8.5 mph13.7 kmh 30.36 in1028.1 mb 0.00 in0.0 mm 0.00 in0.0 mm 0.00 in0.0 mm
07:50 PM 57.4°F14.1°C 31.3°F-0.4°C 37% 0.9 mph NE1.4 kmh NE 4.9 mph7.9 kmh 30.36 in1028.1 mb 0.00 in0.0 mm 0.00 in0.0 mm 0.00 in0.0 mm
08:00 PM 57.4°F14.1°C 31.3°F-0.4°C 37% 2.7 mph NE4.3 kmh NE 7.6 mph12.2 kmh 30.36 in1028.1 mb 0.00 in0.0 mm 0.00 in0.0 mm 0.00 in0.0 mm
08:10 PM 57.0°F13.9°C 31.0°F-0.6°C 37% 2.9 mph E4.7 kmh E 7.6 mph12.2 kmh 30.36 in1028.1 mb 0.00 in0.0 mm 0.00 in0.0 mm 0.00 in0.0 mm
08:20 PM 57.4°F14.1°C 30.6°F-0.8°C 36% 1.7 mph ESE2.7 kmh ESE 7.4 mph11.9 kmh 30.36 in1028.1 mb 0.00 in0.0 mm 0.00 in0.0 mm 0.00 in0.0 mm
08:30 PM 56.8°F13.8°C 30.8°F-0.7°C 37% Calm Calm -- 30.37 in1028.4 mb 0.00 in0.0 mm 0.00 in0.0 mm 0.00 in0.0 mm
08:40 PM 56.8°F13.8°C 30.1°F-1.1°C 36% 3.4 mph ENE5.5 kmh ENE 5.4 mph8.7 kmh 30.36 in1028.1 mb 0.00 in0.0 mm 0.00 in0.0 mm 0.00 in0.0 mm
08:50 PM 56.5°F13.6°C 30.5°F-0.8°C 37% 4.0 mph SE6.4 kmh SE 10.3 mph16.6 kmh 30.35 in1027.8 mb 0.00 in0.0 mm 0.00 in0.0 mm 0.00 in0.0 mm
09:00 PM 56.5°F13.6°C 29.8°F-1.2°C 36% Calm Calm -- 30.35 in1027.8 mb 0.00 in0.0 mm 0.00 in0.0 mm 0.00 in0.0 mm
09:10 PM 55.9°F13.3°C 30.0°F-1.1°C 37% Calm Calm -- 30.35 in1027.8 mb 0.00 in0.0 mm 0.00 in0.0 mm 0.00 in0.0 mm
09:20 PM 55.8°F13.2°C 29.2°F-1.6°C 36% 1.7 mph ESE2.7 kmh ESE 5.4 mph8.7 kmh 30.36 in1028.1 mb 0.00 in0.0 mm 0.00 in0.0 mm 0.00 in0.0 mm
09:30 PM 55.2°F12.9°C 29.4°F-1.4°C 37% 1.3 mph SSE2.1 kmh SSE 4.9 mph7.9 kmh 30.35 in1027.8 mb 0.00 in0.0 mm 0.00 in0.0 mm 0.00 in0.0 mm
09:40 PM 55.2°F12.9°C 29.4°F-1.4°C 37% 1.9 mph E3.1 kmh E 4.9 mph7.9 kmh 30.35 in1027.8 mb 0.00 in0.0 mm 0.00 in0.0 mm 0.00 in0.0 mm
09:50 PM 55.4°F13.0°C 29.5°F-1.4°C 37% 1.6 mph ESE2.6 kmh ESE 5.1 mph8.2 kmh 30.35 in1027.8 mb 0.00 in0.0 mm 0.00 in0.0 mm 0.00 in0.0 mm
10:00 PM 55.4°F13.0°C 28.9°F-1.7°C 36% 1.1 mph E1.8 kmh E 5.1 mph8.2 kmh 30.35 in1027.8 mb 0.00 in0.0 mm 0.00 in0.0 mm 0.00 in0.0 mm
10:10 PM 55.2°F12.9°C 28.7°F-1.8°C 36% 1.1 mph NW1.8 kmh NW 4.9 mph7.9 kmh 30.35 in1027.8 mb 0.00 in0.0 mm 0.00 in0.0 mm 0.00 in0.0 mm
10:20 PM 54.3°F12.4°C 27.9°F-2.3°C 36% 1.1 mph ESE1.8 kmh ESE 4.9 mph7.9 kmh 30.35 in1027.8 mb 0.00 in0.0 mm 0.00 in0.0 mm 0.00 in0.0 mm
10:30 PM 53.4°F11.9°C 27.8°F-2.3°C 37% Calm Calm -- 30.35 in1027.8 mb 0.00 in0.0 mm 0.00 in0.0 mm 0.00 in0.0 mm
10:40 PM 53.8°F12.1°C 28.1°F-2.2°C 37% Calm Calm -- 30.35 in1027.8 mb 0.00 in0.0 mm 0.00 in0.0 mm 0.00 in0.0 mm
10:50 PM 54.3°F12.4°C 27.9°F-2.3°C 36% Calm Calm -- 30.35 in1027.8 mb 0.00 in0.0 mm 0.00 in0.0 mm 0.00 in0.0 mm
11:00 PM 54.1°F12.3°C 28.4°F-2.0°C 37% Calm Calm -- 30.35 in1027.8 mb 0.00 in0.0 mm 0.00 in0.0 mm 0.00 in0.0 mm
11:10 PM 53.8°F12.1°C 28.1°F-2.2°C 37% Calm Calm -- 30.35 in1027.8 mb 0.00 in0.0 mm 0.00 in0.0 mm 0.00 in0.0 mm
11:20 PM 55.0°F12.8°C 27.1°F-2.7°C 34% 1.9 mph E3.1 kmh E 5.8 mph9.3 kmh 30.36 in1028.1 mb 0.00 in0.0 mm 0.00 in0.0 mm 0.00 in0.0 mm
11:30 PM 54.5°F12.5°C 28.1°F-2.2°C 36% 0.6 mph ENE1.0 kmh ENE 3.6 mph5.8 kmh 30.35 in1027.8 mb 0.00 in0.0 mm 0.00 in0.0 mm 0.00 in0.0 mm
11:40 PM 54.3°F12.4°C 27.9°F-2.3°C 36% 5.8 mph E9.3 kmh E 7.2 mph11.6 kmh 30.36 in1028.1 mb 0.00 in0.0 mm 0.00 in0.0 mm 0.00 in0.0 mm
11:50 PM 53.8°F12.1°C 27.4°F-2.6°C 36% 3.2 mph E5.1 kmh E 6.7 mph10.8 kmh 30.36 in1028.1 mb 0.00 in0.0 mm 0.00 in0.0 mm 0.00 in0.0 mm